ADDS METAR Data INFO
IDs: Format: Raw Decoded Include TAF

Data at: 1231 UTC 20 Jul 2017

METAR for:KPEZ (Pleasanton Muni, TX, US)
Text:KPEZ 201215Z AUTO 00000KT 10SM CLR 24/23 A3012 RMK AO2 T02400233
Temperature: 24.0°C ( 75°F)
Dewpoint: 23.3°C ( 74°F) [RH = 96%]
Pressure (altimeter):30.12 inches Hg (1020.1 mb)
Winds:calm
Visibility:10 or more sm (16+ km)
Ceiling:at least 12,000 feet AGL
Clouds:sky clear below 12,000 feet AGL
QC Flag:automated observation with no human augmentation